Time;durP1;ratioP1;P1;durP2;ratioP2;P2;SDS_P1;SDS_P2;PMS_P1;PMS_P2;Temp;Humidity;BMP_temperature;BMP_pressure;BME280_temperature;BME280_humidity;BME280_pressure;Samples;Min_cycle;Max_cycle;Signal;HPM_P1;HPM_P2
2023/10/20 00:01:18;;;;;;;5.10;1.42;;;;;;;;;;6258054;22;20007;-63
2023/10/20 00:03:45;;;;;;;4.28;1.58;;;;;;;;;;6258240;22;20006;-63
2023/10/20 00:06:11;;;;;;;4.13;1.30;;;;;;;;;;6286687;22;20052;-63
2023/10/20 00:08:36;;;;;;;3.50;1.10;;;;;;;;;;6286448;22;19999;-64
2023/10/20 00:11:04;;;;;;;3.13;1.10;;;;;;;;;;6286152;22;20211;-63
2023/10/20 00:13:30;;;;;;;3.05;1.30;;;;;;;;;;6254051;22;20539;-64
2023/10/20 00:15:55;;;;;;;2.88;1.00;;;;;;;;;;6253778;22;20530;-64
2023/10/20 00:18:20;;;;;;;2.90;1.00;;;;;;;;;;6257251;22;20772;-64
2023/10/20 00:20:46;;;;;;;4.90;1.42;;;;;;;;;;6256700;22;20856;-63
2023/10/20 00:23:14;;;;;;;4.80;1.58;;;;;;;;;;6286041;22;19995;-63
2023/10/20 00:25:39;;;;;;;3.60;1.20;;;;;;;;;;6256514;22;20003;-63
2023/10/20 00:28:04;;;;;;;3.65;1.30;;;;;;;;;;6256678;22;20504;-63
2023/10/20 00:30:32;;;;;;;3.47;1.20;;;;;;;;;;6282794;22;20052;-63
2023/10/20 00:32:57;;;;;;;3.80;1.27;;;;;;;;;;6257224;22;20034;-64
2023/10/20 00:35:23;;;;;;;5.47;1.50;;;;;;;;;;6257803;22;20440;-67
2023/10/20 00:37:51;;;;;;;4.85;1.30;;;;;;;;;;6285966;22;20102;-63
2023/10/20 00:40:16;;;;;;;4.07;1.20;;;;;;;;;;6286292;22;20585;-63
2023/10/20 00:42:42;;;;;;;3.90;1.30;;;;;;;;;;6286979;22;20000;-62
2023/10/20 00:45:09;;;;;;;3.50;1.05;;;;;;;;;;6286551;22;20019;-66
2023/10/20 00:47:36;;;;;;;2.85;0.95;;;;;;;;;;6287347;22;19995;-62
2023/10/20 00:50:01;;;;;;;3.90;1.30;;;;;;;;;;6286118;22;19999;-62
2023/10/20 00:52:28;;;;;;;3.30;1.10;;;;;;;;;;6259647;22;20578;-63
2023/10/20 00:54:54;;;;;;;3.13;1.15;;;;;;;;;;6258330;22;20838;-63
2023/10/20 00:57:21;;;;;;;2.83;0.80;;;;;;;;;;6256484;22;20035;-62
2023/10/20 00:59:47;;;;;;;3.20;1.00;;;;;;;;;;6285504;22;20244;-64
2023/10/20 01:02:14;;;;;;;3.92;1.00;;;;;;;;;;6258200;22;19999;-63
2023/10/20 01:04:40;;;;;;;3.67;1.20;;;;;;;;;;6259651;22;20010;-65
2023/10/20 01:07:07;;;;;;;3.22;1.02;;;;;;;;;;6258695;22;20325;-65
2023/10/20 01:09:35;;;;;;;4.85;0.98;;;;;;;;;;6257032;22;20030;-63
2023/10/20 01:12:00;;;;;;;2.60;0.70;;;;;;;;;;6258104;22;20006;-62
2023/10/20 01:14:28;;;;;;;3.17;1.10;;;;;;;;;;6284761;22;19999;-63
2023/10/20 01:16:54;;;;;;;2.17;0.68;;;;;;;;;;6258124;22;20225;-65
2023/10/20 01:19:21;;;;;;;2.35;0.70;;;;;;;;;;6257683;22;20006;-62
2023/10/20 01:21:46;;;;;;;2.28;0.77;;;;;;;;;;6258190;22;20037;-66
2023/10/20 01:24:12;;;;;;;2.60;0.67;;;;;;;;;;6285964;22;20007;-67
2023/10/20 01:26:37;;;;;;;3.20;0.80;;;;;;;;;;6285287;22;20210;-66
2023/10/20 01:29:05;;;;;;;2.50;0.70;;;;;;;;;;6286348;22;20214;-66
2023/10/20 01:31:31;;;;;;;2.42;0.60;;;;;;;;;;6259323;22;20668;-64
2023/10/20 01:33:56;;;;;;;2.97;0.68;;;;;;;;;;6261108;22;19999;-63
2023/10/20 01:36:21;;;;;;;2.87;0.60;;;;;;;;;;6259620;22;20418;-64
2023/10/20 01:38:46;;;;;;;2.20;0.63;;;;;;;;;;6259967;22;20268;-64
2023/10/20 01:41:11;;;;;;;2.63;0.70;;;;;;;;;;6260905;22;20221;-63
2023/10/20 01:43:39;;;;;;;2.22;0.60;;;;;;;;;;6259249;22;20226;-63
2023/10/20 01:46:04;;;;;;;2.33;0.60;;;;;;;;;;6255194;22;20095;-63
2023/10/20 01:48:32;;;;;;;4.03;1.00;;;;;;;;;;6254836;22;20110;-64
2023/10/20 01:50:59;;;;;;;3.33;0.90;;;;;;;;;;6229684;22;20245;-62
2023/10/20 01:53:25;;;;;;;3.75;0.90;;;;;;;;;;6228879;22;20003;-62
2023/10/20 01:55:50;;;;;;;1.38;0.50;;;;;;;;;;6228847;22;20003;-63
2023/10/20 01:58:17;;;;;;;3.45;0.70;;;;;;;;;;6252351;22;20000;-64
2023/10/20 02:00:48;;;;;;;0.98;0.30;;;;;;;;;;6229062;22;20014;-63
2023/10/20 02:03:13;;;;;;;1.02;0.30;;;;;;;;;;6229089;22;20035;-61
2023/10/20 02:05:40;;;;;;;2.30;0.40;;;;;;;;;;6252172;22;20511;-62
2023/10/20 02:08:08;;;;;;;4.65;0.70;;;;;;;;;;6227427;22;20218;-62
2023/10/20 02:10:33;;;;;;;3.15;0.70;;;;;;;;;;6255318;22;20000;-62
2023/10/20 02:12:59;;;;;;;3.17;0.70;;;;;;;;;;6229508;22;20111;-63
2023/10/20 02:15:24;;;;;;;3.97;0.90;;;;;;;;;;6253931;22;20065;-61
2023/10/20 02:17:51;;;;;;;2.23;0.80;;;;;;;;;;6254675;22;19996;-63
2023/10/20 02:20:20;;;;;;;3.78;0.90;;;;;;;;;;6229190;22;20256;-62
2023/10/20 02:22:48;;;;;;;2.30;0.70;;;;;;;;;;6228498;22;20543;-61
2023/10/20 02:25:15;;;;;;;3.53;0.90;;;;;;;;;;6255847;22;20488;-62
2023/10/20 02:27:42;;;;;;;2.38;0.60;;;;;;;;;;6252594;22;20333;-61
2023/10/20 02:30:08;;;;;;;4.22;0.80;;;;;;;;;;6228553;22;20014;-62
2023/10/20 02:32:33;;;;;;;2.92;0.88;;;;;;;;;;6227644;22;20000;-63
2023/10/20 02:34:59;;;;;;;3.20;0.77;;;;;;;;;;6253947;22;20003;-63
2023/10/20 02:37:25;;;;;;;3.03;0.70;;;;;;;;;;6252702;22;20000;-62
2023/10/20 02:39:50;;;;;;;2.08;0.65;;;;;;;;;;6255474;22;20010;-63
2023/10/20 02:42:16;;;;;;;3.13;0.90;;;;;;;;;;6256211;22;20007;-64
2023/10/20 02:44:41;;;;;;;1.83;0.60;;;;;;;;;;6267920;22;21051;-62
2023/10/20 02:47:08;;;;;;;2.83;0.80;;;;;;;;;;6258184;22;20226;-64
2023/10/20 02:49:36;;;;;;;1.98;0.63;;;;;;;;;;6287248;22;20760;-61
2023/10/20 02:52:01;;;;;;;1.35;0.50;;;;;;;;;;6257102;22;20000;-62
2023/10/20 02:54:27;;;;;;;3.75;0.80;;;;;;;;;;6256505;22;20985;-65
2023/10/20 02:56:53;;;;;;;4.07;0.70;;;;;;;;;;6286935;22;20246;-64
2023/10/20 02:59:18;;;;;;;1.75;0.63;;;;;;;;;;6258087;22;20249;-64
2023/10/20 03:01:43;;;;;;;2.33;0.60;;;;;;;;;;6255417;22;20395;-64
2023/10/20 03:04:09;;;;;;;2.97;0.60;;;;;;;;;;6282591;22;20279;-64
2023/10/20 03:06:36;;;;;;;2.10;0.52;;;;;;;;;;6256464;22;20256;-65
2023/10/20 03:09:03;;;;;;;2.47;0.65;;;;;;;;;;6283931;22;20024;-65
2023/10/20 03:11:30;;;;;;;2.58;0.60;;;;;;;;;;6284104;22;20025;-65
2023/10/20 03:13:56;;;;;;;2.42;0.90;;;;;;;;;;6284412;22;20107;-66
2023/10/20 03:16:22;;;;;;;2.75;0.52;;;;;;;;;;6258256;22;20086;-66
2023/10/20 03:18:47;;;;;;;3.90;0.50;;;;;;;;;;6284604;22;20007;-66
2023/10/20 03:21:13;;;;;;;3.25;0.38;;;;;;;;;;6284990;22;20217;-66
2023/10/20 03:23:43;;;;;;;2.88;0.60;;;;;;;;;;6285862;22;20533;-66
2023/10/20 03:26:12;;;;;;;2.30;0.55;;;;;;;;;;6286432;22;19999;-66
2023/10/20 03:28:39;;;;;;;2.83;0.60;;;;;;;;;;6258955;22;20483;-65
2023/10/20 03:31:04;;;;;;;1.52;0.40;;;;;;;;;;6259189;22;20003;-67
2023/10/20 03:33:30;;;;;;;2.35;0.60;;;;;;;;;;6284182;22;19995;-66
2023/10/20 03:35:59;;;;;;;1.65;0.45;;;;;;;;;;6256523;22;19999;-64
2023/10/20 03:38:25;;;;;;;1.95;0.43;;;;;;;;;;6256118;22;20114;-64
2023/10/20 03:40:50;;;;;;;2.07;0.60;;;;;;;;;;6258317;22;20709;-65
2023/10/20 03:43:19;;;;;;;1.83;0.50;;;;;;;;;;6285345;22;20228;-66
2023/10/20 03:45:56;;;;;;;1.73;0.50;;;;;;;;;;6257625;22;20269;-64
2023/10/20 03:48:24;;;;;;;1.40;0.40;;;;;;;;;;6283962;22;19995;-67
2023/10/20 03:50:51;;;;;;;1.90;0.60;;;;;;;;;;6286158;22;20007;-66
2023/10/20 03:54:03;;;;;;;1.88;0.43;;;;;;;;;;6284514;22;20068;-65
2023/10/20 03:56:04;;;;;;;0.98;0.30;;;;;;;;;;6268421;22;20057;-63
2023/10/20 03:58:30;;;;;;;1.52;0.30;;;;;;;;;;6282573;22;20041;-62
2023/10/20 04:00:57;;;;;;;1.08;0.30;;;;;;;;;;6283726;22;20003;-63
2023/10/20 04:03:22;;;;;;;1.42;0.40;;;;;;;;;;6284837;22;20053;-67
2023/10/20 04:05:48;;;;;;;1.30;0.50;;;;;;;;;;6257288;22;20038;-61
2023/10/20 04:08:14;;;;;;;2.17;0.43;;;;;;;;;;6285648;22;20003;-68
2023/10/20 04:10:39;;;;;;;3.53;0.52;;;;;;;;;;6284695;22;20866;-63
2023/10/20 04:13:04;;;;;;;2.87;0.67;;;;;;;;;;6284859;22;20016;-64
2023/10/20 04:15:36;;;;;;;2.33;0.68;;;;;;;;;;6255905;22;20224;-65
2023/10/20 04:18:02;;;;;;;2.10;0.65;;;;;;;;;;6280889;22;20713;-61
2023/10/20 04:20:27;;;;;;;3.00;0.70;;;;;;;;;;6253893;22;20015;-64
2023/10/20 04:22:52;;;;;;;3.35;0.70;;;;;;;;;;6254362;22;20010;-62
2023/10/20 04:25:18;;;;;;;2.65;0.73;;;;;;;;;;6255315;22;20010;-65
2023/10/20 04:27:51;;;;;;;2.88;0.90;;;;;;;;;;6253163;22;20098;-68
2023/10/20 04:52:06;;;;;;;2.17;0.50;;;;;;;;;;6282054;22;20667;-67
2023/10/20 05:02:57;;;;;;;2.83;0.52;;;;;;;;;;6283837;22;20011;-68
2023/10/20 05:07:52;;;;;;;2.27;0.50;;;;;;;;;;6282558;22;20007;-65
2023/10/20 05:10:18;;;;;;;2.92;0.38;;;;;;;;;;6257638;22;20014;-64
2023/10/20 05:12:43;;;;;;;1.40;0.40;;;;;;;;;;6257380;22;20003;-65
2023/10/20 05:15:10;;;;;;;1.65;0.43;;;;;;;;;;6286107;22;20003;-65
2023/10/20 05:17:35;;;;;;;0.90;0.20;;;;;;;;;;6253014;22;20010;-66
2023/10/20 05:20:01;;;;;;;1.50;0.40;;;;;;;;;;6284262;22;20004;-67
2023/10/20 05:22:27;;;;;;;1.40;0.30;;;;;;;;;;6257198;22;20033;-67
2023/10/20 05:24:52;;;;;;;1.45;0.30;;;;;;;;;;6286005;22;20339;-67
2023/10/20 05:27:17;;;;;;;1.30;0.40;;;;;;;;;;6257331;22;20006;-66
2023/10/20 05:29:45;;;;;;;4.77;0.83;;;;;;;;;;6285482;22;20033;-66
2023/10/20 05:32:10;;;;;;;2.15;0.40;;;;;;;;;;6250877;22;20217;-65
2023/10/20 05:34:35;;;;;;;0.87;0.30;;;;;;;;;;6257423;22;20007;-65
2023/10/20 05:37:01;;;;;;;0.63;0.20;;;;;;;;;;6260836;22;20248;-64
2023/10/20 05:39:26;;;;;;;2.10;0.47;;;;;;;;;;6261501;22;20072;-64
2023/10/20 05:41:54;;;;;;;4.27;0.60;;;;;;;;;;6261933;22;20007;-66
2023/10/20 05:44:23;;;;;;;3.60;0.57;;;;;;;;;;6254790;22;20829;-64
2023/10/20 05:46:49;;;;;;;2.92;0.70;;;;;;;;;;6259706;22;20016;-63
2023/10/20 05:49:17;;;;;;;2.60;0.57;;;;;;;;;;6255931;22;20176;-64
2023/10/20 05:51:43;;;;;;;3.35;0.80;;;;;;;;;;6253346;22;19999;-65
2023/10/20 05:54:08;;;;;;;1.88;0.50;;;;;;;;;;6255835;22;20004;-64
2023/10/20 05:56:34;;;;;;;2.13;0.50;;;;;;;;;;6256262;22;20002;-64
2023/10/20 05:58:59;;;;;;;2.83;0.50;;;;;;;;;;6258811;22;20202;-64
2023/10/20 06:01:24;;;;;;;2.57;0.50;;;;;;;;;;6257911;22;20064;-64
2023/10/20 06:03:49;;;;;;;1.48;0.47;;;;;;;;;;6259341;22;20574;-64
2023/10/20 06:06:15;;;;;;;3.47;0.60;;;;;;;;;;6255419;22;20008;-64
2023/10/20 06:08:40;;;;;;;3.05;0.65;;;;;;;;;;6256899;22;20250;-64
2023/10/20 06:11:06;;;;;;;3.33;0.70;;;;;;;;;;6254794;22;20511;-64
2023/10/20 06:13:35;;;;;;;2.25;0.60;;;;;;;;;;6256945;22;20000;-64
2023/10/20 06:16:08;;;;;;;3.00;0.60;;;;;;;;;;6258660;22;19999;-65
2023/10/20 06:18:36;;;;;;;2.58;0.70;;;;;;;;;;6256916;22;20322;-65
2023/10/20 06:21:01;;;;;;;3.63;0.90;;;;;;;;;;6258313;22;20011;-64
2023/10/20 06:23:29;;;;;;;4.85;1.13;;;;;;;;;;6257439;22;20018;-66
2023/10/20 06:25:58;;;;;;;4.53;0.90;;;;;;;;;;6259712;22;20476;-66
2023/10/20 06:28:23;;;;;;;4.53;1.08;;;;;;;;;;6260229;22;20006;-66
2023/10/20 06:30:51;;;;;;;4.47;1.20;;;;;;;;;;6259654;22;20855;-66
2023/10/20 06:33:16;;;;;;;4.85;1.33;;;;;;;;;;6258230;22;20668;-66
2023/10/20 06:38:23;;;;;;;3.25;0.88;;;;;;;;;;6268466;22;20011;-67
2023/10/20 06:40:51;;;;;;;4.32;0.80;;;;;;;;;;6255909;22;20007;-67
2023/10/20 06:43:19;;;;;;;3.85;0.80;;;;;;;;;;6255890;22;20031;-67
2023/10/20 06:45:45;;;;;;;5.88;1.70;;;;;;;;;;6284824;22;20011;-66
2023/10/20 06:48:10;;;;;;;4.07;1.20;;;;;;;;;;6260516;22;19999;-67
2023/10/20 06:50:36;;;;;;;6.38;1.30;;;;;;;;;;6290334;22;20404;-66
2023/10/20 06:53:01;;;;;;;10.18;2.88;;;;;;;;;;6288934;22;19995;-67
2023/10/20 06:55:29;;;;;;;12.00;2.97;;;;;;;;;;6263402;22;20799;-66
2023/10/20 06:57:54;;;;;;;14.50;3.38;;;;;;;;;;6290378;22;20022;-66
2023/10/20 07:00:20;;;;;;;11.40;2.10;;;;;;;;;;6261793;22;20597;-66
2023/10/20 07:02:46;;;;;;;9.50;2.30;;;;;;;;;;6263703;22;20091;-66
2023/10/20 07:05:12;;;;;;;11.43;2.35;;;;;;;;;;6259957;22;20122;-66
2023/10/20 07:07:37;;;;;;;11.57;2.00;;;;;;;;;;6290281;22;20069;-67
2023/10/20 07:10:03;;;;;;;8.10;1.90;;;;;;;;;;6289815;22;20482;-67
2023/10/20 07:12:28;;;;;;;8.07;2.13;;;;;;;;;;6289252;22;20275;-66
2023/10/20 07:14:53;;;;;;;8.40;2.10;;;;;;;;;;6290466;22;20072;-66
2023/10/20 07:17:18;;;;;;;7.70;1.93;;;;;;;;;;6261613;22;20010;-67
2023/10/20 07:19:46;;;;;;;11.97;2.63;;;;;;;;;;6289633;22;20010;-67
2023/10/20 07:22:16;;;;;;;8.07;2.00;;;;;;;;;;6262236;22;20601;-67
2023/10/20 07:24:42;;;;;;;9.50;2.03;;;;;;;;;;6290460;22;20006;-67
2023/10/20 07:27:08;;;;;;;9.02;2.35;;;;;;;;;;6289992;22;20054;-66
2023/10/20 07:29:33;;;;;;;8.63;2.17;;;;;;;;;;6262108;22;20681;-65
2023/10/20 07:32:01;;;;;;;16.00;2.37;;;;;;;;;;6290229;22;20331;-66
2023/10/20 07:34:27;;;;;;;9.18;2.17;;;;;;;;;;6262065;22;20229;-65
2023/10/20 07:36:56;;;;;;;10.93;2.20;;;;;;;;;;6262268;22;20003;-66
2023/10/20 07:39:22;;;;;;;7.90;2.63;;;;;;;;;;6289537;22;20005;-67
2023/10/20 07:41:47;;;;;;;12.20;2.40;;;;;;;;;;6290448;22;20003;-67
2023/10/20 07:44:15;;;;;;;10.10;2.73;;;;;;;;;;6259065;22;20015;-66
2023/10/20 07:46:41;;;;;;;10.73;2.63;;;;;;;;;;6289644;22;20770;-65
2023/10/20 07:49:08;;;;;;;8.35;2.15;;;;;;;;;;6261373;22;20593;-67
2023/10/20 07:51:34;;;;;;;11.20;2.55;;;;;;;;;;6262604;22;20079;-67
2023/10/20 07:53:59;;;;;;;10.25;2.20;;;;;;;;;;6289868;22;20375;-68
2023/10/20 07:56:25;;;;;;;11.33;2.40;;;;;;;;;;6290960;22;20527;-64
2023/10/20 07:58:52;;;;;;;10.02;1.98;;;;;;;;;;6259121;22;20283;-66
2023/10/20 08:01:19;;;;;;;8.15;2.22;;;;;;;;;;6262091;22;20010;-67
2023/10/20 08:03:47;;;;;;;10.68;2.47;;;;;;;;;;6261064;22;20337;-67
2023/10/20 08:06:13;;;;;;;12.32;2.47;;;;;;;;;;6261971;22;20489;-67
2023/10/20 08:08:38;;;;;;;9.27;2.50;;;;;;;;;;6262802;22;19999;-66
2023/10/20 08:11:04;;;;;;;10.03;2.13;;;;;;;;;;6259886;22;20070;-67
2023/10/20 08:13:29;;;;;;;8.43;2.40;;;;;;;;;;6289532;22;20217;-66
2023/10/20 08:15:54;;;;;;;8.13;2.37;;;;;;;;;;6288400;22;20885;-66
2023/10/20 08:18:20;;;;;;;9.23;2.53;;;;;;;;;;6289036;22;20210;-66
2023/10/20 08:20:45;;;;;;;7.70;2.33;;;;;;;;;;6288919;22;20233;-65
2023/10/20 08:23:10;;;;;;;9.55;2.65;;;;;;;;;;6261243;22;20003;-67
2023/10/20 08:25:41;;;;;;;11.17;2.70;;;;;;;;;;6262684;22;20510;-68
2023/10/20 08:28:07;;;;;;;10.98;2.40;;;;;;;;;;6290235;22;20023;-67
2023/10/20 08:30:33;;;;;;;12.18;2.38;;;;;;;;;;6261408;22;20560;-68
2023/10/20 08:32:59;;;;;;;9.85;2.80;;;;;;;;;;6289861;22;20082;-67
2023/10/20 08:35:25;;;;;;;10.40;2.45;;;;;;;;;;6290262;22;20477;-67
2023/10/20 08:37:53;;;;;;;9.23;2.40;;;;;;;;;;6260168;22;20003;-67
2023/10/20 08:40:20;;;;;;;14.38;2.67;;;;;;;;;;6262376;22;19999;-67
2023/10/20 08:42:46;;;;;;;11.10;3.13;;;;;;;;;;6287878;22;20026;-68
2023/10/20 08:45:12;;;;;;;13.32;4.18;;;;;;;;;;6289431;22;20011;-66
2023/10/20 08:47:38;;;;;;;9.32;2.83;;;;;;;;;;6290483;22;20050;-65
2023/10/20 08:50:07;;;;;;;7.65;2.58;;;;;;;;;;6290045;22;19999;-66
2023/10/20 08:52:33;;;;;;;13.60;2.28;;;;;;;;;;6260538;22;20003;-68
2023/10/20 08:55:00;;;;;;;11.50;2.33;;;;;;;;;;6262925;22;20005;-69
2023/10/20 08:57:27;;;;;;;12.25;2.95;;;;;;;;;;6289307;22;20106;-68
2023/10/20 08:59:55;;;;;;;6.68;2.00;;;;;;;;;;6262163;22;20096;-69
2023/10/20 09:02:20;;;;;;;8.32;2.33;;;;;;;;;;6288466;22;19999;-69
2023/10/20 09:04:50;;;;;;;10.52;2.60;;;;;;;;;;6263243;22;20003;-69
2023/10/20 09:07:18;;;;;;;7.80;2.40;;;;;;;;;;6290928;22;19999;-67
2023/10/20 09:09:46;;;;;;;7.53;2.17;;;;;;;;;;6290106;22;20003;-67
2023/10/20 09:12:11;;;;;;;11.10;2.30;;;;;;;;;;6263349;22;20003;-69
2023/10/20 09:14:40;;;;;;;8.50;2.60;;;;;;;;;;6261643;22;20021;-66
2023/10/20 09:17:05;;;;;;;8.30;1.90;;;;;;;;;;6291481;22;20009;-66
2023/10/20 09:19:30;;;;;;;10.48;2.03;;;;;;;;;;6291024;22;20094;-66
2023/10/20 09:21:57;;;;;;;8.68;1.95;;;;;;;;;;6290307;22;20723;-66
2023/10/20 09:24:27;;;;;;;8.88;2.28;;;;;;;;;;6291274;22;20692;-66
2023/10/20 09:26:54;;;;;;;8.40;1.75;;;;;;;;;;6263820;22;20006;-66
2023/10/20 09:29:21;;;;;;;12.60;2.40;;;;;;;;;;6291033;22;20379;-66
2023/10/20 09:31:49;;;;;;;11.95;2.22;;;;;;;;;;6262440;22;20565;-67
2023/10/20 09:34:17;;;;;;;9.63;1.73;;;;;;;;;;6291437;22;20800;-67
2023/10/20 09:36:44;;;;;;;7.07;1.65;;;;;;;;;;6263508;22;20511;-68
2023/10/20 09:39:16;;;;;;;8.63;1.92;;;;;;;;;;6290473;22;20352;-67
2023/10/20 09:41:48;;;;;;;8.48;1.70;;;;;;;;;;6291792;22;20010;-67
2023/10/20 09:44:20;;;;;;;8.10;1.70;;;;;;;;;;6290027;22;20015;-67
2023/10/20 09:46:57;;;;;;;12.75;2.33;;;;;;;;;;6291030;22;20013;-67
2023/10/20 09:49:28;;;;;;;12.63;2.28;;;;;;;;;;6263207;22;20505;-66
2023/10/20 09:51:55;;;;;;;7.68;2.00;;;;;;;;;;6262523;22;19999;-67
2023/10/20 09:54:22;;;;;;;10.15;2.30;;;;;;;;;;6290792;22;20006;-67
2023/10/20 09:56:49;;;;;;;7.28;2.08;;;;;;;;;;6264055;22;20070;-67
2023/10/20 09:59:18;;;;;;;8.00;1.95;;;;;;;;;;6290525;22;20006;-69
2023/10/20 10:01:44;;;;;;;9.25;2.03;;;;;;;;;;6264963;22;20592;-67
2023/10/20 10:04:13;;;;;;;8.75;2.20;;;;;;;;;;6289522;22;19999;-67
2023/10/20 10:06:38;;;;;;;9.35;2.80;;;;;;;;;;6262985;22;20002;-70
2023/10/20 10:09:04;;;;;;;7.70;1.85;;;;;;;;;;6261853;22;20033;-67
2023/10/20 10:11:30;;;;;;;9.90;2.08;;;;;;;;;;6263325;22;20009;-68
2023/10/20 10:13:59;;;;;;;11.32;2.20;;;;;;;;;;6290315;22;20082;-68
2023/10/20 10:16:25;;;;;;;8.13;2.00;;;;;;;;;;6261914;22;20007;-66
2023/10/20 10:18:54;;;;;;;10.48;2.15;;;;;;;;;;6263893;22;19999;-68
2023/10/20 10:21:25;;;;;;;9.15;2.50;;;;;;;;;;6262089;22;20061;-67
2023/10/20 10:24:05;;;;;;;7.85;2.10;;;;;;;;;;6292469;22;20106;-68
2023/10/20 10:26:31;;;;;;;7.55;2.10;;;;;;;;;;6262699;22;19999;-67
2023/10/20 10:28:56;;;;;;;9.27;2.00;;;;;;;;;;6262924;22;20045;-68
2023/10/20 10:31:31;;;;;;;7.80;2.47;;;;;;;;;;6291505;22;20213;-67
2023/10/20 10:34:01;;;;;;;10.07;1.77;;;;;;;;;;6288653;22;19995;-67
2023/10/20 10:36:26;;;;;;;7.78;2.13;;;;;;;;;;6263518;22;20374;-68
2023/10/20 10:38:53;;;;;;;11.20;2.53;;;;;;;;;;6261234;22;19996;-67
2023/10/20 10:41:23;;;;;;;11.25;3.08;;;;;;;;;;6290505;22;20031;-67
2023/10/20 10:43:52;;;;;;;8.73;2.78;;;;;;;;;;6262897;22;20010;-66
2023/10/20 10:46:19;;;;;;;6.15;2.22;;;;;;;;;;6291262;22;20052;-67
2023/10/20 10:48:45;;;;;;;6.68;2.25;;;;;;;;;;6288607;22;20423;-67
2023/10/20 10:51:10;;;;;;;8.57;1.90;;;;;;;;;;6292515;22;20007;-68
2023/10/20 10:53:35;;;;;;;9.45;2.00;;;;;;;;;;6260197;22;20408;-68
2023/10/20 10:56:01;;;;;;;5.85;1.50;;;;;;;;;;6291150;22;20002;-67
2023/10/20 10:58:27;;;;;;;9.05;1.75;;;;;;;;;;6290984;22;20000;-66
2023/10/20 11:00:54;;;;;;;9.07;1.90;;;;;;;;;;6262675;22;20057;-66
2023/10/20 11:03:19;;;;;;;13.73;2.33;;;;;;;;;;6290910;22;20010;-66
2023/10/20 11:05:47;;;;;;;9.43;2.90;;;;;;;;;;6261179;22;19995;-68
2023/10/20 11:08:13;;;;;;;8.80;2.85;;;;;;;;;;6263554;22;19999;-67
2023/10/20 11:10:42;;;;;;;8.30;2.03;;;;;;;;;;6260255;22;19999;-65
2023/10/20 11:13:12;;;;;;;7.53;2.15;;;;;;;;;;6289844;22;20209;-66
2023/10/20 11:15:37;;;;;;;8.07;1.67;;;;;;;;;;6262638;22;20007;-65
2023/10/20 11:18:06;;;;;;;7.05;1.55;;;;;;;;;;6288998;22;19999;-65
2023/10/20 11:20:36;;;;;;;8.88;1.60;;;;;;;;;;6262380;22;20390;-64
2023/10/20 11:23:03;;;;;;;8.63;1.70;;;;;;;;;;6262071;22;20003;-67
2023/10/20 11:25:29;;;;;;;9.85;1.65;;;;;;;;;;6289034;22;20000;-66
2023/10/20 11:27:57;;;;;;;8.80;1.77;;;;;;;;;;6289762;22;20084;-65
2023/10/20 11:30:23;;;;;;;7.25;1.75;;;;;;;;;;6290140;22;20053;-66
2023/10/20 11:32:48;;;;;;;8.03;1.67;;;;;;;;;;6262232;22;19999;-69
2023/10/20 11:35:13;;;;;;;7.77;1.80;;;;;;;;;;6288188;22;19995;-67
2023/10/20 11:37:38;;;;;;;7.15;1.50;;;;;;;;;;6290764;22;20543;-67
2023/10/20 11:40:04;;;;;;;6.00;1.30;;;;;;;;;;6288552;22;20011;-67
2023/10/20 11:42:30;;;;;;;7.85;1.83;;;;;;;;;;6263473;22;20007;-66
2023/10/20 11:44:55;;;;;;;7.70;2.25;;;;;;;;;;6286856;22;20019;-67
2023/10/20 11:47:23;;;;;;;7.57;2.40;;;;;;;;;;6261543;22;20733;-68
2023/10/20 11:49:50;;;;;;;10.52;2.97;;;;;;;;;;6258196;22;20003;-67
2023/10/20 11:52:15;;;;;;;9.55;2.00;;;;;;;;;;6262567;22;20008;-69
2023/10/20 11:54:41;;;;;;;12.05;2.78;;;;;;;;;;6261002;22;20835;-68
2023/10/20 11:57:08;;;;;;;9.27;2.15;;;;;;;;;;6263234;22;20038;-67
2023/10/20 11:59:35;;;;;;;10.07;2.30;;;;;;;;;;6290357;22;20523;-68
2023/10/20 12:02:00;;;;;;;9.68;2.20;;;;;;;;;;6289419;22;20691;-67
2023/10/20 12:04:25;;;;;;;8.85;2.10;;;;;;;;;;6262050;22;20003;-68
2023/10/20 12:06:50;;;;;;;10.37;2.30;;;;;;;;;;6287321;22;20030;-66
2023/10/20 12:09:19;;;;;;;7.77;2.10;;;;;;;;;;6289939;22;20217;-68
2023/10/20 12:11:47;;;;;;;9.93;2.37;;;;;;;;;;6261141;22;20221;-69
2023/10/20 12:14:14;;;;;;;10.40;2.05;;;;;;;;;;6261768;22;20122;-68
2023/10/20 12:16:41;;;;;;;8.82;1.73;;;;;;;;;;6288070;22;20041;-67
2023/10/20 12:19:09;;;;;;;9.73;2.65;;;;;;;;;;6262590;22;20027;-67
2023/10/20 12:21:34;;;;;;;9.50;2.00;;;;;;;;;;6261753;22;20039;-69
2023/10/20 12:24:00;;;;;;;9.50;1.67;;;;;;;;;;6262166;22;20889;-68
2023/10/20 12:26:27;;;;;;;9.45;2.38;;;;;;;;;;6290025;22;20271;-70
2023/10/20 12:28:56;;;;;;;5.93;1.50;;;;;;;;;;6289575;22;19995;-69
2023/10/20 12:31:24;;;;;;;10.35;2.20;;;;;;;;;;6261918;22;20025;-67
2023/10/20 12:33:49;;;;;;;9.13;1.90;;;;;;;;;;6286781;22;20001;-69
2023/10/20 12:36:16;;;;;;;13.45;1.90;;;;;;;;;;6288666;22;20004;-66
2023/10/20 12:38:43;;;;;;;10.40;2.63;;;;;;;;;;6290296;22;19999;-69
2023/10/20 12:41:13;;;;;;;9.77;2.13;;;;;;;;;;6262337;22;20468;-68
2023/10/20 12:43:38;;;;;;;;;;;;;;;;;;6263067;22;19999;-66
2023/10/20 12:46:04;;;;;;;10.07;2.10;;;;;;;;;;6258707;22;19921;-69
2023/10/20 12:48:30;;;;;;;8.07;1.88;;;;;;;;;;6261519;22;20138;-72
2023/10/20 12:50:56;;;;;;;10.95;2.10;;;;;;;;;;6289661;22;20059;-69
2023/10/20 12:53:22;;;;;;;11.70;2.28;;;;;;;;;;6289802;22;20623;-69
2023/10/20 12:55:47;;;;;;;9.93;2.10;;;;;;;;;;6288676;22;20002;-68
2023/10/20 12:58:13;;;;;;;7.63;2.20;;;;;;;;;;6262026;22;20034;-70
2023/10/20 13:00:42;;;;;;;10.38;3.00;;;;;;;;;;6260709;22;20322;-71
2023/10/20 13:03:07;;;;;;;14.27;2.80;;;;;;;;;;6287504;22;20001;-71
2023/10/20 13:05:35;;;;;;;9.77;2.83;;;;;;;;;;6261310;22;20752;-73
2023/10/20 13:08:01;;;;;;;7.37;2.23;;;;;;;;;;6286905;22;20009;-71
2023/10/20 13:10:26;;;;;;;9.50;2.40;;;;;;;;;;6288244;22;20308;-70
2023/10/20 13:12:52;;;;;;;12.07;2.65;;;;;;;;;;6258558;22;20575;-72
2023/10/20 13:15:21;;;;;;;8.10;3.00;;;;;;;;;;6260840;22;20003;-69
2023/10/20 13:17:46;;;;;;;10.10;3.07;;;;;;;;;;6259514;22;20052;-70
2023/10/20 13:20:13;;;;;;;9.77;2.93;;;;;;;;;;6260129;22;20015;-71
2023/10/20 13:22:42;;;;;;;10.98;2.88;;;;;;;;;;6260675;22;20260;-75
2023/10/20 13:25:09;;;;;;;11.63;3.17;;;;;;;;;;6287496;22;20006;-72
2023/10/20 13:27:35;;;;;;;9.05;2.60;;;;;;;;;;6289405;22;19996;-70
2023/10/20 13:30:00;;;;;;;13.20;3.42;;;;;;;;;;6284663;22;20003;-70
2023/10/20 13:32:26;;;;;;;9.90;2.38;;;;;;;;;;6262222;22;19999;-74
2023/10/20 13:34:53;;;;;;;9.13;2.50;;;;;;;;;;6289498;22;20074;-70
2023/10/20 13:37:21;;;;;;;8.55;2.28;;;;;;;;;;6288907;22;20006;-69
2023/10/20 13:39:47;;;;;;;9.15;2.42;;;;;;;;;;6289178;22;20007;-67
2023/10/20 13:42:14;;;;;;;10.95;2.90;;;;;;;;;;6258562;22;20052;-75
2023/10/20 13:44:40;;;;;;;10.90;2.90;;;;;;;;;;6287141;22;20628;-71
2023/10/20 13:47:05;;;;;;;12.27;2.75;;;;;;;;;;6258634;22;20061;-72
2023/10/20 13:49:32;;;;;;;8.93;2.47;;;;;;;;;;6290781;22;20006;-69
2023/10/20 13:51:58;;;;;;;9.10;2.70;;;;;;;;;;6289820;22;20300;-69
2023/10/20 13:54:25;;;;;;;9.07;2.70;;;;;;;;;;6261443;22;20114;-71
2023/10/20 13:56:50;;;;;;;11.85;3.10;;;;;;;;;;6263412;22;20283;-70
2023/10/20 13:59:16;;;;;;;8.73;2.60;;;;;;;;;;6290685;22;20003;-68
2023/10/20 14:01:41;;;;;;;9.90;2.73;;;;;;;;;;6264018;22;20289;-72
2023/10/20 14:04:09;;;;;;;7.53;2.70;;;;;;;;;;6289655;22;20300;-70
2023/10/20 14:06:34;;;;;;;9.00;2.58;;;;;;;;;;6263046;22;20110;-69
2023/10/20 14:08:59;;;;;;;11.07;3.05;;;;;;;;;;6263531;22;20554;-69
2023/10/20 14:11:28;;;;;;;11.68;3.30;;;;;;;;;;6288659;22;20056;-69
2023/10/20 14:13:53;;;;;;;13.50;3.50;;;;;;;;;;6261045;22;20801;-70
2023/10/20 14:16:19;;;;;;;12.45;4.43;;;;;;;;;;6261853;22;20018;-69
2023/10/20 14:18:45;;;;;;;12.95;4.68;;;;;;;;;;6288707;22;20000;-69
2023/10/20 14:21:10;;;;;;;11.50;4.25;;;;;;;;;;6288601;22;20007;-69
2023/10/20 14:23:35;;;;;;;14.57;3.97;;;;;;;;;;6260383;22;20026;-70
2023/10/20 14:26:01;;;;;;;12.13;4.83;;;;;;;;;;6288145;22;20301;-68
2023/10/20 14:28:32;;;;;;;12.02;4.53;;;;;;;;;;6260356;22;20225;-70
2023/10/20 14:31:01;;;;;;;12.85;4.68;;;;;;;;;;6288520;22;20006;-70
2023/10/20 14:33:27;;;;;;;16.50;4.87;;;;;;;;;;6261393;22;20005;-68
2023/10/20 14:35:57;;;;;;;15.63;5.13;;;;;;;;;;6288556;22;20297;-70
2023/10/20 14:38:22;;;;;;;13.35;4.18;;;;;;;;;;6288005;22;20078;-75
2023/10/20 14:40:57;;;;;;;15.30;4.72;;;;;;;;;;6259638;22;20110;-72
2023/10/20 14:43:22;;;;;;;14.23;6.13;;;;;;;;;;6287704;22;20006;-73
2023/10/20 14:45:54;;;;;;;14.13;4.30;;;;;;;;;;6258938;22;20015;-71
2023/10/20 14:48:21;;;;;;;8.90;3.45;;;;;;;;;;6259895;22;20533;-74
2023/10/20 14:50:50;;;;;;;11.48;3.20;;;;;;;;;;6285894;22;19999;-73
2023/10/20 14:53:15;;;;;;;9.23;2.88;;;;;;;;;;6288223;22;20336;-69
2023/10/20 14:55:42;;;;;;;17.10;5.13;;;;;;;;;;6287194;22;19999;-67
2023/10/20 14:58:08;;;;;;;11.57;3.53;;;;;;;;;;6286881;22;20050;-69
2023/10/20 15:00:33;;;;;;;7.20;2.10;;;;;;;;;;6288001;22;20672;-74
2023/10/20 15:03:01;;;;;;;6.35;2.58;;;;;;;;;;6260368;22;20376;-76
2023/10/20 15:05:28;;;;;;;9.25;2.40;;;;;;;;;;6287366;22;20014;-73
2023/10/20 15:07:54;;;;;;;7.93;2.10;;;;;;;;;;6259998;22;19995;-76
2023/10/20 15:10:19;;;;;;;5.63;1.88;;;;;;;;;;6287230;22;20058;-73
2023/10/20 15:12:45;;;;;;;7.40;2.90;;;;;;;;;;6281932;22;20517;-70